sensor_id;sensor_type;location;lat;lon;timestamp;P1;P2;P0
47810;PMS5003;33575;52.600;7.318;2022-12-18T00:00:40;86;68;
47810;PMS5003;33575;52.600;7.318;2022-12-18T00:03:11;93;80;
47810;PMS5003;33575;52.600;7.318;2022-12-18T00:08:12;104;85;
47810;PMS5003;33575;52.600;7.318;2022-12-18T00:10:43;99;82;
47810;PMS5003;33575;52.600;7.318;2022-12-18T00:13:14;98;81;
47810;PMS5003;33575;52.600;7.318;2022-12-18T00:15:45;91;75;
47810;PMS5003;33575;52.600;7.318;2022-12-18T00:18:20;81;75;
47810;PMS5003;33575;52.600;7.318;2022-12-18T00:20:45;94;79;
47810;PMS5003;33575;52.600;7.318;2022-12-18T00:23:16;99;76;
47810;PMS5003;33575;52.600;7.318;2022-12-18T00:25:46;93;73;
47810;PMS5003;33575;52.600;7.318;2022-12-18T00:28:16;95;74;
47810;PMS5003;33575;52.600;7.318;2022-12-18T00:30:47;84;74;
47810;PMS5003;33575;52.600;7.318;2022-12-18T00:33:18;95;81;
47810;PMS5003;33575;52.600;7.318;2022-12-18T00:35:48;85;70;
47810;PMS5003;33575;52.600;7.318;2022-12-18T00:38:19;87;76;
47810;PMS5003;33575;52.600;7.318;2022-12-18T00:40:49;84;68;
47810;PMS5003;33575;52.600;7.318;2022-12-18T00:43:19;85;73;
47810;PMS5003;33575;52.600;7.318;2022-12-18T00:45:49;87;76;
47810;PMS5003;33575;52.600;7.318;2022-12-18T00:48:20;94;81;
47810;PMS5003;33575;52.600;7.318;2022-12-18T00:50:51;89;75;
47810;PMS5003;33575;52.600;7.318;2022-12-18T00:53:21;80;69;
47810;PMS5003;33575;52.600;7.318;2022-12-18T00:55:52;85;74;
47810;PMS5003;33575;52.600;7.318;2022-12-18T00:58:22;78;70;
47810;PMS5003;33575;52.600;7.318;2022-12-18T01:00:53;101;81;
47810;PMS5003;33575;52.600;7.318;2022-12-18T01:03:24;88;78;
47810;PMS5003;33575;52.600;7.318;2022-12-18T01:05:54;79;70;
47810;PMS5003;33575;52.600;7.318;2022-12-18T01:08:25;88;71;
47810;PMS5003;33575;52.600;7.318;2022-12-18T01:10:55;79;70;
47810;PMS5003;33575;52.600;7.318;2022-12-18T01:13:25;93;72;
47810;PMS5003;33575;52.600;7.318;2022-12-18T01:15:56;88;75;
47810;PMS5003;33575;52.600;7.318;2022-12-18T01:18:26;80;68;
47810;PMS5003;33575;52.600;7.318;2022-12-18T01:20:56;92;72;
47810;PMS5003;33575;52.600;7.318;2022-12-18T01:23:26;75;62;
47810;PMS5003;33575;52.600;7.318;2022-12-18T01:25:57;78;66;
47810;PMS5003;33575;52.600;7.318;2022-12-18T01:28:28;81;71;
47810;PMS5003;33575;52.600;7.318;2022-12-18T01:33:29;84;68;
47810;PMS5003;33575;52.600;7.318;2022-12-18T01:35:59;86;73;
47810;PMS5003;33575;52.600;7.318;2022-12-18T01:38:29;82;73;
47810;PMS5003;33575;52.600;7.318;2022-12-18T01:41:00;76;65;
47810;PMS5003;33575;52.600;7.318;2022-12-18T01:46:01;78;72;
47810;PMS5003;33575;52.600;7.318;2022-12-18T01:48:32;84;66;
47810;PMS5003;33575;52.600;7.318;2022-12-18T01:51:03;68;61;
47810;PMS5003;33575;52.600;7.318;2022-12-18T01:53:34;77;69;
47810;PMS5003;33575;52.600;7.318;2022-12-18T01:56:04;84;65;
47810;PMS5003;33575;52.600;7.318;2022-12-18T01:58:35;85;74;
47810;PMS5003;33575;52.600;7.318;2022-12-18T02:01:04;88;77;
47810;PMS5003;33575;52.600;7.318;2022-12-18T02:03:35;90;74;
47810;PMS5003;33575;52.600;7.318;2022-12-18T02:06:07;84;70;
47810;PMS5003;33575;52.600;7.318;2022-12-18T02:08:37;95;77;
47810;PMS5003;33575;52.600;7.318;2022-12-18T02:11:07;75;67;
47810;PMS5003;33575;52.600;7.318;2022-12-18T02:13:40;79;67;
47810;PMS5003;33575;52.600;7.318;2022-12-18T02:16:09;86;68;
47810;PMS5003;33575;52.600;7.318;2022-12-18T02:18:38;88;72;
47810;PMS5003;33575;52.600;7.318;2022-12-18T02:21:09;80;69;
47810;PMS5003;33575;52.600;7.318;2022-12-18T02:23:42;81;74;
47810;PMS5003;33575;52.600;7.318;2022-12-18T02:26:12;89;73;
47810;PMS5003;33575;52.600;7.318;2022-12-18T02:28:40;89;72;
47810;PMS5003;33575;52.600;7.318;2022-12-18T02:31:11;76;68;
47810;PMS5003;33575;52.600;7.318;2022-12-18T02:33:41;79;68;
47810;PMS5003;33575;52.600;7.318;2022-12-18T02:36:11;76;73;
47810;PMS5003;33575;52.600;7.318;2022-12-18T02:38:41;86;70;
47810;PMS5003;33575;52.600;7.318;2022-12-18T02:41:12;78;69;
47810;PMS5003;33575;52.600;7.318;2022-12-18T02:43:46;80;68;
47810;PMS5003;33575;52.600;7.318;2022-12-18T02:48:44;84;67;
47810;PMS5003;33575;52.600;7.318;2022-12-18T02:51:15;87;65;
47810;PMS5003;33575;52.600;7.318;2022-12-18T02:53:46;77;72;
47810;PMS5003;33575;52.600;7.318;2022-12-18T02:56:17;81;68;
47810;PMS5003;33575;52.600;7.318;2022-12-18T02:58:47;85;71;
47810;PMS5003;33575;52.600;7.318;2022-12-18T03:01:18;73;65;
47810;PMS5003;33575;52.600;7.318;2022-12-18T03:03:48;71;66;
47810;PMS5003;33575;52.600;7.318;2022-12-18T03:06:18;75;64;
47810;PMS5003;33575;52.600;7.318;2022-12-18T03:08:48;93;74;
47810;PMS5003;33575;52.600;7.318;2022-12-18T03:11:18;73;64;
47810;PMS5003;33575;52.600;7.318;2022-12-18T03:13:49;94;83;
47810;PMS5003;33575;52.600;7.318;2022-12-18T03:16:20;86;76;
47810;PMS5003;33575;52.600;7.318;2022-12-18T03:18:51;85;72;
47810;PMS5003;33575;52.600;7.318;2022-12-18T03:21:21;79;71;
47810;PMS5003;33575;52.600;7.318;2022-12-18T03:23:51;62;56;
47810;PMS5003;33575;52.600;7.318;2022-12-18T03:26:22;75;63;
47810;PMS5003;33575;52.600;7.318;2022-12-18T03:28:52;85;70;
47810;PMS5003;33575;52.600;7.318;2022-12-18T03:31:23;83;66;
47810;PMS5003;33575;52.600;7.318;2022-12-18T03:33:54;73;69;
47810;PMS5003;33575;52.600;7.318;2022-12-18T03:36:23;82;66;
47810;PMS5003;33575;52.600;7.318;2022-12-18T03:38:54;68;59;
47810;PMS5003;33575;52.600;7.318;2022-12-18T03:41:25;75;64;
47810;PMS5003;33575;52.600;7.318;2022-12-18T03:43:55;80;68;
47810;PMS5003;33575;52.600;7.318;2022-12-18T03:46:26;75;67;
47810;PMS5003;33575;52.600;7.318;2022-12-18T03:48:58;74;69;
47810;PMS5003;33575;52.600;7.318;2022-12-18T03:51:27;77;69;
47810;PMS5003;33575;52.600;7.318;2022-12-18T03:53:57;79;69;
47810;PMS5003;33575;52.600;7.318;2022-12-18T03:56:28;77;73;
47810;PMS5003;33575;52.600;7.318;2022-12-18T03:58:57;78;68;
47810;PMS5003;33575;52.600;7.318;2022-12-18T04:01:31;74;67;
47810;PMS5003;33575;52.600;7.318;2022-12-18T04:03:59;63;59;
47810;PMS5003;33575;52.600;7.318;2022-12-18T04:06:29;75;68;
47810;PMS5003;33575;52.600;7.318;2022-12-18T04:09:00;74;63;
47810;PMS5003;33575;52.600;7.318;2022-12-18T04:11:30;76;67;
47810;PMS5003;33575;52.600;7.318;2022-12-18T04:14:05;66;60;
47810;PMS5003;33575;52.600;7.318;2022-12-18T04:16:31;67;62;
47810;PMS5003;33575;52.600;7.318;2022-12-18T04:19:01;59;54;
47810;PMS5003;33575;52.600;7.318;2022-12-18T04:21:31;63;56;
47810;PMS5003;33575;52.600;7.318;2022-12-18T04:24:02;72;60;
47810;PMS5003;33575;52.600;7.318;2022-12-18T04:26:33;82;67;
47810;PMS5003;33575;52.600;7.318;2022-12-18T04:29:03;74;61;
47810;PMS5003;33575;52.600;7.318;2022-12-18T04:31:34;69;56;
47810;PMS5003;33575;52.600;7.318;2022-12-18T04:34:04;86;71;
47810;PMS5003;33575;52.600;7.318;2022-12-18T04:36:34;107;89;
47810;PMS5003;33575;52.600;7.318;2022-12-18T04:39:04;70;60;
47810;PMS5003;33575;52.600;7.318;2022-12-18T04:41:35;66;59;
47810;PMS5003;33575;52.600;7.318;2022-12-18T04:44:06;64;56;
47810;PMS5003;33575;52.600;7.318;2022-12-18T04:46:36;73;64;
47810;PMS5003;33575;52.600;7.318;2022-12-18T04:49:07;74;61;
47810;PMS5003;33575;52.600;7.318;2022-12-18T04:51:38;69;62;
47810;PMS5003;33575;52.600;7.318;2022-12-18T04:54:08;68;60;
47810;PMS5003;33575;52.600;7.318;2022-12-18T04:56:39;77;67;
47810;PMS5003;33575;52.600;7.318;2022-12-18T04:59:09;72;64;
47810;PMS5003;33575;52.600;7.318;2022-12-18T05:01:39;64;63;
47810;PMS5003;33575;52.600;7.318;2022-12-18T05:04:09;73;67;
47810;PMS5003;33575;52.600;7.318;2022-12-18T05:06:40;69;63;
47810;PMS5003;33575;52.600;7.318;2022-12-18T05:09:11;72;63;
47810;PMS5003;33575;52.600;7.318;2022-12-18T05:11:41;58;55;
47810;PMS5003;33575;52.600;7.318;2022-12-18T05:14:11;62;61;
47810;PMS5003;33575;52.600;7.318;2022-12-18T05:16:42;62;57;
47810;PMS5003;33575;52.600;7.318;2022-12-18T05:19:13;64;53;
47810;PMS5003;33575;52.600;7.318;2022-12-18T05:21:43;61;56;
47810;PMS5003;33575;52.600;7.318;2022-12-18T05:24:14;57;50;
47810;PMS5003;33575;52.600;7.318;2022-12-18T05:26:44;61;56;
47810;PMS5003;33575;52.600;7.318;2022-12-18T05:29:15;66;60;
47810;PMS5003;33575;52.600;7.318;2022-12-18T05:31:45;52;50;
47810;PMS5003;33575;52.600;7.318;2022-12-18T05:34:16;58;56;
47810;PMS5003;33575;52.600;7.318;2022-12-18T05:36:46;54;51;
47810;PMS5003;33575;52.600;7.318;2022-12-18T05:39:17;53;50;
47810;PMS5003;33575;52.600;7.318;2022-12-18T05:41:47;54;50;
47810;PMS5003;33575;52.600;7.318;2022-12-18T05:44:18;57;50;
47810;PMS5003;33575;52.600;7.318;2022-12-18T05:46:49;55;50;
47810;PMS5003;33575;52.600;7.318;2022-12-18T05:49:19;61;56;
47810;PMS5003;33575;52.600;7.318;2022-12-18T05:51:49;58;56;
47810;PMS5003;33575;52.600;7.318;2022-12-18T05:54:20;50;48;
47810;PMS5003;33575;52.600;7.318;2022-12-18T05:56:51;59;55;
47810;PMS5003;33575;52.600;7.318;2022-12-18T05:59:21;56;52;
47810;PMS5003;33575;52.600;7.318;2022-12-18T06:01:51;59;56;
47810;PMS5003;33575;52.600;7.318;2022-12-18T06:04:22;76;66;
47810;PMS5003;33575;52.600;7.318;2022-12-18T06:06:52;58;53;
47810;PMS5003;33575;52.600;7.318;2022-12-18T06:09:23;59;51;
47810;PMS5003;33575;52.600;7.318;2022-12-18T06:11:54;55;51;
47810;PMS5003;33575;52.600;7.318;2022-12-18T06:14:25;52;47;
47810;PMS5003;33575;52.600;7.318;2022-12-18T06:16:55;48;45;
47810;PMS5003;33575;52.600;7.318;2022-12-18T06:19:26;58;54;
47810;PMS5003;33575;52.600;7.318;2022-12-18T06:21:56;55;53;
47810;PMS5003;33575;52.600;7.318;2022-12-18T06:24:26;56;52;
47810;PMS5003;33575;52.600;7.318;2022-12-18T06:26:57;48;48;
47810;PMS5003;33575;52.600;7.318;2022-12-18T06:29:27;53;47;
47810;PMS5003;33575;52.600;7.318;2022-12-18T06:31:58;59;49;
47810;PMS5003;33575;52.600;7.318;2022-12-18T06:34:28;56;53;
47810;PMS5003;33575;52.600;7.318;2022-12-18T06:36:59;53;47;
47810;PMS5003;33575;52.600;7.318;2022-12-18T06:39:29;52;50;
47810;PMS5003;33575;52.600;7.318;2022-12-18T06:41:59;64;49;
47810;PMS5003;33575;52.600;7.318;2022-12-18T06:44:29;55;52;
47810;PMS5003;33575;52.600;7.318;2022-12-18T06:47:00;58;50;
47810;PMS5003;33575;52.600;7.318;2022-12-18T06:49:31;54;50;
47810;PMS5003;33575;52.600;7.318;2022-12-18T06:52:02;49;44;
47810;PMS5003;33575;52.600;7.318;2022-12-18T06:54:32;53;45;
47810;PMS5003;33575;52.600;7.318;2022-12-18T06:57:03;50;43;
47810;PMS5003;33575;52.600;7.318;2022-12-18T06:59:33;58;50;
47810;PMS5003;33575;52.600;7.318;2022-12-18T07:02:03;49;48;
47810;PMS5003;33575;52.600;7.318;2022-12-18T07:04:34;51;48;
47810;PMS5003;33575;52.600;7.318;2022-12-18T07:07:05;52;50;
47810;PMS5003;33575;52.600;7.318;2022-12-18T07:09:36;57;53;
47810;PMS5003;33575;52.600;7.318;2022-12-18T07:12:06;50;47;
47810;PMS5003;33575;52.600;7.318;2022-12-18T07:14:37;61;54;
47810;PMS5003;33575;52.600;7.318;2022-12-18T07:17:08;50;43;
47810;PMS5003;33575;52.600;7.318;2022-12-18T07:19:38;45;41;
47810;PMS5003;33575;52.600;7.318;2022-12-18T07:22:08;49;42;
47810;PMS5003;33575;52.600;7.318;2022-12-18T07:24:39;55;48;
47810;PMS5003;33575;52.600;7.318;2022-12-18T07:27:10;54;48;
47810;PMS5003;33575;52.600;7.318;2022-12-18T07:29:40;50;48;
47810;PMS5003;33575;52.600;7.318;2022-12-18T07:32:10;56;51;
47810;PMS5003;33575;52.600;7.318;2022-12-18T07:34:40;51;49;
47810;PMS5003;33575;52.600;7.318;2022-12-18T07:37:10;56;51;
47810;PMS5003;33575;52.600;7.318;2022-12-18T07:39:41;57;53;
47810;PMS5003;33575;52.600;7.318;2022-12-18T07:42:11;56;50;
47810;PMS5003;33575;52.600;7.318;2022-12-18T07:44:42;53;45;
47810;PMS5003;33575;52.600;7.318;2022-12-18T07:47:12;49;43;
47810;PMS5003;33575;52.600;7.318;2022-12-18T07:49:42;68;61;
47810;PMS5003;33575;52.600;7.318;2022-12-18T07:52:13;50;48;
47810;PMS5003;33575;52.600;7.318;2022-12-18T07:54:43;55;50;
47810;PMS5003;33575;52.600;7.318;2022-12-18T07:57:18;60;51;
47810;PMS5003;33575;52.600;7.318;2022-12-18T07:59:44;58;51;
47810;PMS5003;33575;52.600;7.318;2022-12-18T08:02:15;50;47;
47810;PMS5003;33575;52.600;7.318;2022-12-18T08:04:46;61;58;
47810;PMS5003;33575;52.600;7.318;2022-12-18T08:07:16;55;54;
47810;PMS5003;33575;52.600;7.318;2022-12-18T08:09:46;55;47;
47810;PMS5003;33575;52.600;7.318;2022-12-18T08:12:17;59;52;
47810;PMS5003;33575;52.600;7.318;2022-12-18T08:14:48;50;44;
47810;PMS5003;33575;52.600;7.318;2022-12-18T08:17:19;58;51;
47810;PMS5003;33575;52.600;7.318;2022-12-18T08:19:49;57;49;
47810;PMS5003;33575;52.600;7.318;2022-12-18T08:22:19;53;50;
47810;PMS5003;33575;52.600;7.318;2022-12-18T08:24:49;57;55;
47810;PMS5003;33575;52.600;7.318;2022-12-18T08:27:24;51;45;
47810;PMS5003;33575;52.600;7.318;2022-12-18T08:29:50;50;44;
47810;PMS5003;33575;52.600;7.318;2022-12-18T08:32:21;48;45;
47810;PMS5003;33575;52.600;7.318;2022-12-18T08:34:51;55;49;
47810;PMS5003;33575;52.600;7.318;2022-12-18T08:37:22;62;52;
47810;PMS5003;33575;52.600;7.318;2022-12-18T08:39:53;58;49;
47810;PMS5003;33575;52.600;7.318;2022-12-18T08:42:23;49;45;
47810;PMS5003;33575;52.600;7.318;2022-12-18T08:44:53;48;40;
47810;PMS5003;33575;52.600;7.318;2022-12-18T08:47:24;48;45;
47810;PMS5003;33575;52.600;7.318;2022-12-18T08:49:54;46;43;
47810;PMS5003;33575;52.600;7.318;2022-12-18T08:52:25;44;43;
47810;PMS5003;33575;52.600;7.318;2022-12-18T08:54:56;50;43;
47810;PMS5003;33575;52.600;7.318;2022-12-18T08:57:26;47;42;
47810;PMS5003;33575;52.600;7.318;2022-12-18T08:59:56;40;37;
47810;PMS5003;33575;52.600;7.318;2022-12-18T09:02:27;47;40;
47810;PMS5003;33575;52.600;7.318;2022-12-18T09:04:58;50;44;
47810;PMS5003;33575;52.600;7.318;2022-12-18T09:07:27;41;38;
47810;PMS5003;33575;52.600;7.318;2022-12-18T09:09:58;39;37;
47810;PMS5003;33575;52.600;7.318;2022-12-18T09:12:29;44;40;
47810;PMS5003;33575;52.600;7.318;2022-12-18T09:15:00;44;38;
47810;PMS5003;33575;52.600;7.318;2022-12-18T09:17:30;41;39;
47810;PMS5003;33575;52.600;7.318;2022-12-18T09:20:00;38;36;
47810;PMS5003;33575;52.600;7.318;2022-12-18T09:22:31;41;37;
47810;PMS5003;33575;52.600;7.318;2022-12-18T09:25:05;44;40;
47810;PMS5003;33575;52.600;7.318;2022-12-18T09:27:32;40;37;
47810;PMS5003;33575;52.600;7.318;2022-12-18T09:30:03;42;37;
47810;PMS5003;33575;52.600;7.318;2022-12-18T09:32:32;42;37;
47810;PMS5003;33575;52.600;7.318;2022-12-18T09:35:03;43;39;
47810;PMS5003;33575;52.600;7.318;2022-12-18T09:37:33;51;47;
47810;PMS5003;33575;52.600;7.318;2022-12-18T09:40:04;60;50;
47810;PMS5003;33575;52.600;7.318;2022-12-18T09:42:35;48;48;
47810;PMS5003;33575;52.600;7.318;2022-12-18T09:45:07;50;41;
47810;PMS5003;33575;52.600;7.318;2022-12-18T09:47:36;51;45;
47810;PMS5003;33575;52.600;7.318;2022-12-18T09:52:39;44;43;
47810;PMS5003;33575;52.600;7.318;2022-12-18T09:55:09;45;41;
47810;PMS5003;33575;52.600;7.318;2022-12-18T09:57:39;47;42;
47810;PMS5003;33575;52.600;7.318;2022-12-18T10:00:13;45;42;
47810;PMS5003;33575;52.600;7.318;2022-12-18T10:02:39;37;35;
47810;PMS5003;33575;52.600;7.318;2022-12-18T10:05:10;40;37;
47810;PMS5003;33575;52.600;7.318;2022-12-18T10:07:42;46;39;
47810;PMS5003;33575;52.600;7.318;2022-12-18T10:10:14;36;33;
47810;PMS5003;33575;52.600;7.318;2022-12-18T10:12:42;35;34;
47810;PMS5003;33575;52.600;7.318;2022-12-18T10:15:13;41;40;
47810;PMS5003;33575;52.600;7.318;2022-12-18T10:17:43;32;32;
47810;PMS5003;33575;52.600;7.318;2022-12-18T10:20:13;36;35;
47810;PMS5003;33575;52.600;7.318;2022-12-18T10:22:46;40;35;
47810;PMS5003;33575;52.600;7.318;2022-12-18T10:25:16;36;32;
47810;PMS5003;33575;52.600;7.318;2022-12-18T10:27:44;40;35;
47810;PMS5003;33575;52.600;7.318;2022-12-18T10:30:16;32;31;
47810;PMS5003;33575;52.600;7.318;2022-12-18T10:32:45;42;34;
47810;PMS5003;33575;52.600;7.318;2022-12-18T10:35:17;33;31;
47810;PMS5003;33575;52.600;7.318;2022-12-18T10:40:21;34;33;
47810;PMS5003;33575;52.600;7.318;2022-12-18T10:42:47;33;29;
47810;PMS5003;33575;52.600;7.318;2022-12-18T10:45:17;45;41;
47810;PMS5003;33575;52.600;7.318;2022-12-18T10:47:48;36;34;
47810;PMS5003;33575;52.600;7.318;2022-12-18T10:50:20;30;30;
47810;PMS5003;33575;52.600;7.318;2022-12-18T10:52:53;30;29;
47810;PMS5003;33575;52.600;7.318;2022-12-18T10:55:18;28;27;
47810;PMS5003;33575;52.600;7.318;2022-12-18T10:57:48;33;33;
47810;PMS5003;33575;52.600;7.318;2022-12-18T11:00:21;29;28;
47810;PMS5003;33575;52.600;7.318;2022-12-18T11:02:50;34;31;
47810;PMS5003;33575;52.600;7.318;2022-12-18T11:05:24;38;34;
47810;PMS5003;33575;52.600;7.318;2022-12-18T11:07:50;32;31;
47810;PMS5003;33575;52.600;7.318;2022-12-18T11:10:22;43;42;
47810;PMS5003;33575;52.600;7.318;2022-12-18T11:12:51;36;34;
47810;PMS5003;33575;52.600;7.318;2022-12-18T11:15:23;47;44;
47810;PMS5003;33575;52.600;7.318;2022-12-18T11:17:52;53;50;
47810;PMS5003;33575;52.600;7.318;2022-12-18T11:20:26;44;43;
47810;PMS5003;33575;52.600;7.318;2022-12-18T11:22:55;39;37;
47810;PMS5003;33575;52.600;7.318;2022-12-18T11:25:29;37;33;
47810;PMS5003;33575;52.600;7.318;2022-12-18T11:27:55;35;29;
47810;PMS5003;33575;52.600;7.318;2022-12-18T11:30:26;42;39;
47810;PMS5003;33575;52.600;7.318;2022-12-18T11:32:57;33;30;
47810;PMS5003;33575;52.600;7.318;2022-12-18T11:35:32;37;32;
47810;PMS5003;33575;52.600;7.318;2022-12-18T11:37:57;32;27;
47810;PMS5003;33575;52.600;7.318;2022-12-18T11:40:27;40;34;
47810;PMS5003;33575;52.600;7.318;2022-12-18T11:42:58;32;32;
47810;PMS5003;33575;52.600;7.318;2022-12-18T11:45:28;38;34;
47810;PMS5003;33575;52.600;7.318;2022-12-18T11:48:00;34;32;
47810;PMS5003;33575;52.600;7.318;2022-12-18T11:50:30;39;36;
47810;PMS5003;33575;52.600;7.318;2022-12-18T11:53:04;35;33;
47810;PMS5003;33575;52.600;7.318;2022-12-18T11:55:32;37;34;
47810;PMS5003;33575;52.600;7.318;2022-12-18T11:58:01;35;32;
47810;PMS5003;33575;52.600;7.318;2022-12-18T12:00:31;42;36;
47810;PMS5003;33575;52.600;7.318;2022-12-18T12:03:06;38;35;
47810;PMS5003;33575;52.600;7.318;2022-12-18T12:05:35;34;31;
47810;PMS5003;33575;52.600;7.318;2022-12-18T12:08:04;30;30;
47810;PMS5003;33575;52.600;7.318;2022-12-18T12:10:36;36;32;
47810;PMS5003;33575;52.600;7.318;2022-12-18T12:13:09;35;34;
47810;PMS5003;33575;52.600;7.318;2022-12-18T12:15:36;35;29;
47810;PMS5003;33575;52.600;7.318;2022-12-18T12:18:13;29;29;
47810;PMS5003;33575;52.600;7.318;2022-12-18T12:20:39;31;31;
47810;PMS5003;33575;52.600;7.318;2022-12-18T12:23:05;42;37;
47810;PMS5003;33575;52.600;7.318;2022-12-18T12:25:36;38;35;
47810;PMS5003;33575;52.600;7.318;2022-12-18T12:28:11;43;38;
47810;PMS5003;33575;52.600;7.318;2022-12-18T12:30:39;37;33;
47810;PMS5003;33575;52.600;7.318;2022-12-18T12:33:20;38;37;
47810;PMS5003;33575;52.600;7.318;2022-12-18T12:35:42;38;37;
47810;PMS5003;33575;52.600;7.318;2022-12-18T12:38:08;46;39;
47810;PMS5003;33575;52.600;7.318;2022-12-18T12:40:44;39;37;
47810;PMS5003;33575;52.600;7.318;2022-12-18T12:43:14;38;35;
47810;PMS5003;33575;52.600;7.318;2022-12-18T12:45:40;36;36;
47810;PMS5003;33575;52.600;7.318;2022-12-18T12:48:13;33;33;
47810;PMS5003;33575;52.600;7.318;2022-12-18T12:50:40;39;35;
47810;PMS5003;33575;52.600;7.318;2022-12-18T12:53:14;38;36;
47810;PMS5003;33575;52.600;7.318;2022-12-18T12:55:40;40;34;
47810;PMS5003;33575;52.600;7.318;2022-12-18T12:58:14;41;36;
47810;PMS5003;33575;52.600;7.318;2022-12-18T13:00:44;33;31;
47810;PMS5003;33575;52.600;7.318;2022-12-18T13:03:12;36;35;
47810;PMS5003;33575;52.600;7.318;2022-12-18T13:05:43;37;34;
47810;PMS5003;33575;52.600;7.318;2022-12-18T13:10:44;38;36;
47810;PMS5003;33575;52.600;7.318;2022-12-18T13:13:15;37;35;
47810;PMS5003;33575;52.600;7.318;2022-12-18T13:15:44;39;35;
47810;PMS5003;33575;52.600;7.318;2022-12-18T13:18:16;40;38;
47810;PMS5003;33575;52.600;7.318;2022-12-18T13:20:50;40;36;
47810;PMS5003;33575;52.600;7.318;2022-12-18T13:25:45;34;26;
47810;PMS5003;33575;52.600;7.318;2022-12-18T13:28:18;35;34;
47810;PMS5003;33575;52.600;7.318;2022-12-18T13:30:47;38;33;
47810;PMS5003;33575;52.600;7.318;2022-12-18T13:35:51;38;36;
47810;PMS5003;33575;52.600;7.318;2022-12-18T13:38:22;38;30;
47810;PMS5003;33575;52.600;7.318;2022-12-18T13:40:53;35;32;
47810;PMS5003;33575;52.600;7.318;2022-12-18T13:43:22;33;32;
47810;PMS5003;33575;52.600;7.318;2022-12-18T13:45:58;37;31;
47810;PMS5003;33575;52.600;7.318;2022-12-18T13:48:22;38;34;
47810;PMS5003;33575;52.600;7.318;2022-12-18T13:50:53;33;32;
47810;PMS5003;33575;52.600;7.318;2022-12-18T13:53:23;28;25;
47810;PMS5003;33575;52.600;7.318;2022-12-18T13:55:52;42;40;
47810;PMS5003;33575;52.600;7.318;2022-12-18T13:58:23;39;33;
47810;PMS5003;33575;52.600;7.318;2022-12-18T14:00:53;32;29;
47810;PMS5003;33575;52.600;7.318;2022-12-18T14:03:25;30;28;
47810;PMS5003;33575;52.600;7.318;2022-12-18T14:05:55;38;36;
47810;PMS5003;33575;52.600;7.318;2022-12-18T14:08:25;30;27;
47810;PMS5003;33575;52.600;7.318;2022-12-18T14:10:55;32;32;
47810;PMS5003;33575;52.600;7.318;2022-12-18T14:13:26;33;30;
47810;PMS5003;33575;52.600;7.318;2022-12-18T14:15:56;35;32;
47810;PMS5003;33575;52.600;7.318;2022-12-18T14:18:26;31;28;
47810;PMS5003;33575;52.600;7.318;2022-12-18T14:20:57;32;30;
47810;PMS5003;33575;52.600;7.318;2022-12-18T14:23:28;35;34;
47810;PMS5003;33575;52.600;7.318;2022-12-18T14:26:03;34;32;
47810;PMS5003;33575;52.600;7.318;2022-12-18T14:28:29;36;34;
47810;PMS5003;33575;52.600;7.318;2022-12-18T14:30:59;40;32;
47810;PMS5003;33575;52.600;7.318;2022-12-18T14:33:29;35;29;
47810;PMS5003;33575;52.600;7.318;2022-12-18T14:36:01;32;29;
47810;PMS5003;33575;52.600;7.318;2022-12-18T14:38:31;29;28;
47810;PMS5003;33575;52.600;7.318;2022-12-18T14:41:02;28;28;
47810;PMS5003;33575;52.600;7.318;2022-12-18T14:43:31;38;36;
47810;PMS5003;33575;52.600;7.318;2022-12-18T14:46:02;32;30;
47810;PMS5003;33575;52.600;7.318;2022-12-18T14:48:34;30;29;
47810;PMS5003;33575;52.600;7.318;2022-12-18T14:51:03;31;29;
47810;PMS5003;33575;52.600;7.318;2022-12-18T14:53:35;29;28;
47810;PMS5003;33575;52.600;7.318;2022-12-18T14:58:34;28;27;
47810;PMS5003;33575;52.600;7.318;2022-12-18T15:01:05;31;29;
47810;PMS5003;33575;52.600;7.318;2022-12-18T15:03:35;33;28;
47810;PMS5003;33575;52.600;7.318;2022-12-18T15:08:36;32;27;
47810;PMS5003;33575;52.600;7.318;2022-12-18T15:13:38;30;27;
47810;PMS5003;33575;52.600;7.318;2022-12-18T15:16:08;30;28;
47810;PMS5003;33575;52.600;7.318;2022-12-18T15:18:41;36;32;
47810;PMS5003;33575;52.600;7.318;2022-12-18T15:21:09;33;27;
47810;PMS5003;33575;52.600;7.318;2022-12-18T15:23:45;30;29;
47810;PMS5003;33575;52.600;7.318;2022-12-18T15:26:11;29;26;
47810;PMS5003;33575;52.600;7.318;2022-12-18T15:28:43;27;27;
47810;PMS5003;33575;52.600;7.318;2022-12-18T15:33:42;32;26;
47810;PMS5003;33575;52.600;7.318;2022-12-18T15:36:12;36;29;
47810;PMS5003;33575;52.600;7.318;2022-12-18T15:38:45;33;31;
47810;PMS5003;33575;52.600;7.318;2022-12-18T15:41:15;24;22;
47810;PMS5003;33575;52.600;7.318;2022-12-18T15:43:44;28;26;
47810;PMS5003;33575;52.600;7.318;2022-12-18T15:46:15;27;24;
47810;PMS5003;33575;52.600;7.318;2022-12-18T15:48:45;29;26;
47810;PMS5003;33575;52.600;7.318;2022-12-18T15:51:16;29;27;
47810;PMS5003;33575;52.600;7.318;2022-12-18T15:53:46;28;27;
47810;PMS5003;33575;52.600;7.318;2022-12-18T15:56:16;26;23;
47810;PMS5003;33575;52.600;7.318;2022-12-18T15:58:46;23;22;
47810;PMS5003;33575;52.600;7.318;2022-12-18T16:01:17;25;24;
47810;PMS5003;33575;52.600;7.318;2022-12-18T16:03:47;33;30;
47810;PMS5003;33575;52.600;7.318;2022-12-18T16:06:18;25;24;
47810;PMS5003;33575;52.600;7.318;2022-12-18T16:08:48;25;22;
47810;PMS5003;33575;52.600;7.318;2022-12-18T16:11:21;25;24;
47810;PMS5003;33575;52.600;7.318;2022-12-18T16:13:50;26;25;
47810;PMS5003;33575;52.600;7.318;2022-12-18T16:16:19;27;24;
47810;PMS5003;33575;52.600;7.318;2022-12-18T16:18:50;29;25;
47810;PMS5003;33575;52.600;7.318;2022-12-18T16:21:22;25;25;
47810;PMS5003;33575;52.600;7.318;2022-12-18T16:23:50;28;23;
47810;PMS5003;33575;52.600;7.318;2022-12-18T16:26:21;27;26;
47810;PMS5003;33575;52.600;7.318;2022-12-18T16:28:51;24;23;
47810;PMS5003;33575;52.600;7.318;2022-12-18T16:31:22;24;22;
47810;PMS5003;33575;52.600;7.318;2022-12-18T16:36:22;26;25;
47810;PMS5003;33575;52.600;7.318;2022-12-18T16:38:53;24;23;
47810;PMS5003;33575;52.600;7.318;2022-12-18T16:41:23;27;26;
47810;PMS5003;33575;52.600;7.318;2022-12-18T16:43:55;24;23;
47810;PMS5003;33575;52.600;7.318;2022-12-18T16:46:24;24;23;
47810;PMS5003;33575;52.600;7.318;2022-12-18T16:48:56;25;24;
47810;PMS5003;33575;52.600;7.318;2022-12-18T16:51:25;26;25;
47810;PMS5003;33575;52.600;7.318;2022-12-18T16:53:55;29;29;
47810;PMS5003;33575;52.600;7.318;2022-12-18T16:56:26;25;24;
47810;PMS5003;33575;52.600;7.318;2022-12-18T16:58:57;25;22;
47810;PMS5003;33575;52.600;7.318;2022-12-18T17:01:27;24;22;
47810;PMS5003;33575;52.600;7.318;2022-12-18T17:03:57;26;25;
47810;PMS5003;33575;52.600;7.318;2022-12-18T17:06:27;28;27;
47810;PMS5003;33575;52.600;7.318;2022-12-18T17:08:57;22;22;
47810;PMS5003;33575;52.600;7.318;2022-12-18T17:11:29;21;20;